Time;durP1;ratioP1;P1;durP2;ratioP2;P2;SDS_P1;SDS_P2;PMS_P1;PMS_P2;Temp;Humidity;BMP_temperature;BMP_pressure;BME280_temperature;BME280_humidity;BME280_pressure;Samples;Min_cycle;Max_cycle;Signal;HPM_P1;HPM_P2
2022/07/02 05:23:55;;;;;;;0.82;0.40;;;24.60;99.90;;;;;;3142571;23;20304;-68
2022/07/02 05:26:22;;;;;;;1.10;0.60;;;25.40;99.90;;;;;;4911367;29;20297;-70
2022/07/02 05:28:48;;;;;;;1.35;0.70;;;25.80;99.30;;;;;;4902131;29;20776;-70
2022/07/02 05:31:15;;;;;;;1.08;0.80;;;26.10;98.80;;;;;;4909088;29;20300;-70
2022/07/02 05:33:42;;;;;;;1.85;1.10;;;26.60;97.60;;;;;;4905112;29;20294;-70
2022/07/02 05:36:09;;;;;;;3.65;1.10;;;26.80;96.80;;;;;;4909005;29;20671;-71
2022/07/02 05:38:36;;;;;;;5.10;1.65;;;27.00;96.30;;;;;;4907802;29;20206;-69
2022/07/02 05:41:04;;;;;;;4.03;1.70;;;27.40;95.30;;;;;;4911149;29;20317;-70
2022/07/02 05:43:31;;;;;;;3.40;1.63;;;27.90;94.50;;;;;;4908339;29;20577;-69
2022/07/02 05:45:58;;;;;;;2.63;1.58;;;28.00;93.80;;;;;;4911240;29;20216;-71
2022/07/02 05:48:25;;;;;;;2.80;1.65;;;28.40;94.20;;;;;;4904638;29;20211;-70
2022/07/02 05:50:51;;;;;;;3.10;1.45;;;29.00;93.30;;;;;;4911331;29;20241;-70
2022/07/02 05:53:18;;;;;;;2.97;1.30;;;29.30;92.80;;;;;;4907118;29;20217;-70
2022/07/02 05:55:45;;;;;;;1.90;1.20;;;29.60;92.00;;;;;;4906529;29;20209;-70
2022/07/02 05:58:13;;;;;;;3.92;1.73;;;29.30;92.20;;;;;;4911637;29;20208;-69
2022/07/02 06:00:40;;;;;;;1.33;1.08;;;29.30;91.80;;;;;;4903272;29;20309;-70
2022/07/02 06:03:07;;;;;;;2.83;1.38;;;29.50;91.30;;;;;;4905571;29;20234;-69
2022/07/02 06:08:18;;;;;;;1.40;0.73;;;29.90;91.00;;;;;;4904364;29;20625;-70
2022/07/02 06:10:45;;;;;;;1.60;0.65;;;29.90;90.50;;;;;;4904492;29;20236;-70
2022/07/02 06:13:15;;;;;;;1.33;0.70;;;29.80;90.30;;;;;;4904841;29;20248;-70
2022/07/02 06:15:42;;;;;;;0.80;0.55;;;29.80;90.80;;;;;;4901482;29;20225;-70
2022/07/02 06:18:09;;;;;;;3.17;0.90;;;30.00;90.20;;;;;;4904839;29;20214;-70
2022/07/02 06:20:36;;;;;;;1.42;0.50;;;29.70;88.70;;;;;;4910602;29;20233;-71
2022/07/02 06:23:02;;;;;;;1.70;0.60;;;30.00;90.20;;;;;;4906775;29;20304;-70
2022/07/02 06:25:29;;;;;;;0.98;0.60;;;30.10;87.90;;;;;;4901274;29;20221;-70
2022/07/02 06:27:56;;;;;;;1.67;0.55;;;30.10;88.10;;;;;;4901357;29;20214;-70
2022/07/02 06:30:24;;;;;;;0.85;0.57;;;30.00;87.40;;;;;;4908827;29;20656;-70
2022/07/02 06:32:51;;;;;;;1.48;0.50;;;30.10;87.50;;;;;;4903601;29;20216;-70
2022/07/02 06:35:18;;;;;;;2.95;0.60;;;30.40;85.80;;;;;;4905121;29;20569;-70
2022/07/02 06:37:45;;;;;;;2.20;0.85;;;30.30;84.20;;;;;;4906047;29;20205;-71
2022/07/02 06:40:12;;;;;;;2.83;0.73;;;29.80;82.00;;;;;;4900517;29;20332;-70
2022/07/02 06:42:39;;;;;;;2.33;0.75;;;29.50;83.10;;;;;;4910068;29;20245;-71
2022/07/02 06:45:06;;;;;;;3.85;0.90;;;29.60;83.10;;;;;;4908485;29;20573;-70
2022/07/02 06:47:40;;;;;;;3.28;0.80;;;29.50;84.90;;;;;;4904988;29;20225;-70
2022/07/02 06:50:08;;;;;;;2.17;1.00;;;30.10;84.30;;;;;;4903029;29;20232;-73
2022/07/02 06:52:35;;;;;;;1.60;0.95;;;30.30;84.90;;;;;;4911268;29;20206;-70
2022/07/02 06:55:02;;;;;;;2.30;0.65;;;30.60;82.60;;;;;;4913091;29;20216;-70
2022/07/02 06:57:29;;;;;;;1.90;0.70;;;30.30;79.20;;;;;;4907153;29;20210;-70
2022/07/02 06:59:56;;;;;;;2.00;0.40;;;29.60;80.80;;;;;;4911115;29;20277;-70
2022/07/02 07:02:23;;;;;;;3.03;0.60;;;29.50;79.30;;;;;;4910587;29;20242;-70
2022/07/02 07:04:51;;;;;;;2.58;0.50;;;29.00;77.20;;;;;;4907006;29;20210;-73
2022/07/02 07:07:19;;;;;;;0.75;0.45;;;29.10;80.90;;;;;;4909758;29;20206;-70
2022/07/02 07:09:46;;;;;;;1.67;0.50;;;29.50;80.50;;;;;;4911486;29;20713;-70
2022/07/02 07:12:13;;;;;;;0.90;0.50;;;29.30;74.00;;;;;;4906271;29;20221;-70
2022/07/02 07:14:40;;;;;;;0.68;0.30;;;29.00;76.40;;;;;;4912360;29;21090;-70
2022/07/02 07:17:07;;;;;;;3.13;0.60;;;29.10;75.80;;;;;;4913386;29;20550;-74
2022/07/02 07:19:33;;;;;;;1.48;0.70;;;29.50;78.30;;;;;;4905853;29;20222;-70
2022/07/02 07:22:02;;;;;;;1.35;0.43;;;29.70;77.60;;;;;;4909503;29;20230;-69
2022/07/02 07:24:29;;;;;;;1.60;0.45;;;29.50;79.10;;;;;;4909939;29;20229;-69
2022/07/02 07:26:57;;;;;;;1.80;0.47;;;29.00;78.90;;;;;;4913881;29;20216;-70
2022/07/02 07:29:24;;;;;;;0.47;0.30;;;29.40;80.60;;;;;;4910596;29;20317;-70
2022/07/02 07:31:51;;;;;;;1.30;0.50;;;29.30;78.40;;;;;;4913887;29;20229;-70
2022/07/02 07:34:17;;;;;;;2.35;0.50;;;30.00;78.20;;;;;;4908383;29;20293;-71
2022/07/02 07:36:45;;;;;;;1.25;0.55;;;30.60;79.20;;;;;;4910687;29;20700;-70
2022/07/02 07:39:13;;;;;;;1.13;0.50;;;29.30;78.30;;;;;;4909530;29;20591;-70
2022/07/02 07:41:40;;;;;;;1.20;0.38;;;29.00;78.70;;;;;;4902820;29;20705;-70
2022/07/02 07:44:07;;;;;;;1.25;0.40;;;28.10;80.70;;;;;;4899841;29;20225;-69
2022/07/02 07:46:34;;;;;;;0.70;0.45;;;28.20;81.00;;;;;;4899529;29;20217;-70
2022/07/02 07:49:01;;;;;;;0.63;0.40;;;27.80;83.50;;;;;;4899936;29;20230;-70
2022/07/02 07:51:30;;;;;;;1.20;0.50;;;28.30;82.10;;;;;;4899996;29;20210;-72
2022/07/02 07:53:56;;;;;;;1.33;0.60;;;28.40;81.60;;;;;;4899629;29;20211;-69
2022/07/02 07:56:25;;;;;;;1.42;0.63;;;28.50;82.70;;;;;;4900260;29;20213;-70
2022/07/02 07:58:51;;;;;;;1.35;0.43;;;29.10;83.50;;;;;;4900120;29;20230;-69
2022/07/02 08:01:18;;;;;;;1.70;0.60;;;29.80;81.20;;;;;;4900185;29;20569;-70
2022/07/02 08:03:45;;;;;;;3.80;0.80;;;29.60;80.20;;;;;;4899795;29;20252;-69
2022/07/02 08:06:12;;;;;;;1.13;0.65;;;29.60;80.60;;;;;;4899472;29;20301;-70
2022/07/02 08:08:39;;;;;;;1.67;1.00;;;29.80;79.90;;;;;;4898772;29;20206;-70
2022/07/02 08:11:07;;;;;;;1.55;0.52;;;30.10;81.10;;;;;;4900004;29;20301;-70
2022/07/02 08:13:35;;;;;;;1.35;0.52;;;29.80;81.20;;;;;;4900047;29;20226;-71
2022/07/02 08:16:02;;;;;;;1.40;0.70;;;28.80;82.30;;;;;;4899754;29;20295;-70
2022/07/02 08:18:29;;;;;;;2.35;0.70;;;28.30;83.60;;;;;;4899756;29;20215;-70
2022/07/02 08:20:55;;;;;;;1.55;0.52;;;29.00;85.80;;;;;;4899543;29;20293;-70
2022/07/02 08:23:23;;;;;;;1.52;0.60;;;28.80;81.90;;;;;;4899588;29;20330;-70
2022/07/02 08:25:50;;;;;;;2.00;0.50;;;28.50;84.50;;;;;;4899655;29;20217;-70
2022/07/02 08:28:18;;;;;;;1.10;0.60;;;28.80;82.70;;;;;;4899388;29;20566;-70
2022/07/02 08:30:46;;;;;;;0.93;0.60;;;29.10;81.60;;;;;;4899414;29;20238;-70
2022/07/02 08:33:15;;;;;;;2.20;0.82;;;29.30;83.40;;;;;;4899422;29;20210;-69
2022/07/02 08:35:42;;;;;;;0.60;0.40;;;29.30;80.70;;;;;;4899360;29;20301;-71
2022/07/02 08:38:09;;;;;;;0.80;0.60;;;29.40;81.70;;;;;;4899228;29;20738;-71
2022/07/02 08:40:36;;;;;;;1.23;0.60;;;28.90;79.70;;;;;;4899217;29;20281;-70
2022/07/02 08:43:04;;;;;;;1.70;0.80;;;28.90;81.40;;;;;;4899016;29;20242;-71
2022/07/02 08:45:32;;;;;;;1.23;0.60;;;28.50;81.90;;;;;;4905535;29;20209;-69
2022/07/02 08:48:02;;;;;;;1.80;0.50;;;28.70;81.20;;;;;;4915709;29;20217;-68
2022/07/02 08:50:30;;;;;;;2.15;0.63;;;28.60;81.00;;;;;;4914668;29;20222;-68
2022/07/02 08:52:57;;;;;;;2.63;0.38;;;29.00;83.60;;;;;;4898896;29;20210;-68
2022/07/02 08:55:24;;;;;;;1.00;0.50;;;29.10;82.60;;;;;;4910742;29;20216;-70
2022/07/02 08:57:52;;;;;;;2.25;0.45;;;29.10;82.10;;;;;;4917547;29;20300;-70
